createdAt,value
2018-07-08T00:00:52.268Z,3.3
2018-07-08T00:03:52.127Z,3.2
2018-07-08T00:06:54.104Z,3.5
2018-07-08T00:09:52.144Z,3.4
2018-07-08T00:12:52.257Z,3.3
2018-07-08T00:15:52.272Z,3.2
2018-07-08T00:18:52.231Z,3.8
2018-07-08T00:21:54.699Z,3.1
2018-07-08T00:24:52.172Z,3.6
2018-07-08T00:27:52.295Z,3.3
2018-07-08T00:30:52.162Z,3.5
2018-07-08T00:33:52.323Z,3.7
2018-07-08T00:36:52.150Z,3.6
2018-07-08T00:39:53.372Z,3.4
2018-07-08T00:42:52.198Z,3.4
2018-07-08T00:45:52.213Z,3.2
2018-07-08T00:48:52.250Z,3.3
2018-07-08T00:51:52.212Z,3.2
2018-07-08T00:54:52.119Z,3.3
2018-07-08T00:57:52.206Z,3.1
2018-07-08T01:00:52.306Z,3.3
2018-07-08T01:03:52.193Z,3.3
2018-07-08T01:06:54.173Z,3.1
2018-07-08T01:09:52.301Z,3.1
2018-07-08T01:12:52.178Z,3.3
2018-07-08T01:15:52.353Z,3.2
2018-07-08T01:18:52.166Z,3.5
2018-07-08T01:21:52.167Z,2.9
2018-07-08T01:24:54.991Z,3
2018-07-08T01:27:52.261Z,3.3
2018-07-08T01:30:52.242Z,3
2018-07-08T01:33:52.404Z,3.4
2018-07-08T01:36:52.210Z,3.2
2018-07-08T01:39:52.257Z,3.1
2018-07-08T01:42:54.549Z,3.1
2018-07-08T01:45:52.206Z,3.2
2018-07-08T01:48:52.201Z,3.2
2018-07-08T01:51:52.192Z,3.2
2018-07-08T01:54:52.210Z,3.1
2018-07-08T01:57:52.304Z,3
2018-07-08T02:00:52.215Z,3.1
2018-07-08T02:03:52.284Z,3.4
2018-07-08T02:06:52.637Z,3.1
2018-07-08T02:09:52.218Z,3.1
2018-07-08T02:12:52.237Z,3.2
2018-07-08T02:15:52.227Z,3
2018-07-08T02:18:52.629Z,3.2
2018-07-08T02:22:02.111Z,3.1
2018-07-08T02:24:52.298Z,3.1
2018-07-08T02:27:52.357Z,2.9
2018-07-08T02:30:52.588Z,3.1
2018-07-08T02:33:52.276Z,3.2
2018-07-08T02:36:52.349Z,3
2018-07-08T02:39:52.632Z,3.2
2018-07-08T02:42:52.369Z,3.1
2018-07-08T02:45:52.309Z,2.9
2018-07-08T02:48:52.522Z,3
2018-07-08T02:51:53.969Z,3
2018-07-08T02:54:52.403Z,3.2
2018-07-08T02:57:52.290Z,3.1
2018-07-08T03:00:52.378Z,3.1
2018-07-08T03:03:52.623Z,3
2018-07-08T03:06:52.441Z,2.9
2018-07-08T03:09:52.576Z,2.9
2018-07-08T03:12:52.646Z,3.3
2018-07-08T03:15:52.576Z,3
2018-07-08T03:18:52.357Z,2.9
2018-07-08T03:21:52.291Z,3
2018-07-08T03:24:52.259Z,2.9
2018-07-08T03:27:52.425Z,3.2
2018-07-08T03:30:52.316Z,3
2018-07-08T03:33:52.418Z,3
2018-07-08T03:36:52.303Z,2.9
2018-07-08T03:39:52.349Z,3
2018-07-08T03:42:52.372Z,2.9
2018-07-08T03:45:52.362Z,2.8
2018-07-08T03:48:52.354Z,2.8
2018-07-08T03:51:52.254Z,2.9
2018-07-08T03:54:52.363Z,2.8
2018-07-08T03:57:52.589Z,2.8
2018-07-08T04:00:52.616Z,2.9
2018-07-08T04:03:52.641Z,3.1
2018-07-08T04:06:52.408Z,2.8
2018-07-08T04:09:52.475Z,2.9
2018-07-08T04:12:52.600Z,3
2018-07-08T04:15:52.393Z,2.9
2018-07-08T04:18:52.306Z,2.9
2018-07-08T04:21:53.055Z,2.8
2018-07-08T04:24:52.427Z,2.7
2018-07-08T04:27:52.640Z,2.8
2018-07-08T04:30:52.874Z,2.9
2018-07-08T04:33:52.380Z,2.7
2018-07-08T04:36:52.371Z,3
2018-07-08T04:39:52.607Z,2.8
2018-07-08T04:42:52.698Z,2.7
2018-07-08T04:45:52.589Z,3
2018-07-08T04:48:52.351Z,2.9
2018-07-08T04:51:52.221Z,3
2018-07-08T04:54:52.547Z,2.8
2018-07-08T04:57:52.237Z,2.8
2018-07-08T05:00:52.755Z,2.8
2018-07-08T05:03:52.723Z,2.8
2018-07-08T05:06:52.392Z,2.8
2018-07-08T05:09:51.866Z,2.8
2018-07-08T05:12:52.569Z,2.8
2018-07-08T05:15:52.347Z,2.8
2018-07-08T05:18:52.624Z,3
2018-07-08T05:21:52.650Z,2.8
2018-07-08T05:24:51.922Z,3
2018-07-08T05:27:54.524Z,2.7
2018-07-08T05:30:52.461Z,2.8
2018-07-08T05:33:52.417Z,2.9
2018-07-08T05:37:02.035Z,2.7
2018-07-08T05:39:52.357Z,2.8
2018-07-08T05:42:52.743Z,2.8
2018-07-08T05:45:51.781Z,2.8
2018-07-08T05:48:51.902Z,2.7
2018-07-08T05:51:51.947Z,2.7
2018-07-08T05:54:51.896Z,2.7
2018-07-08T05:57:52.675Z,2.6
2018-07-08T06:00:52.766Z,2.6
2018-07-08T06:03:51.881Z,2.7
2018-07-08T06:06:52.201Z,2.7
2018-07-08T06:09:52.197Z,2.6
2018-07-08T06:12:51.874Z,2.6
2018-07-08T06:15:52.773Z,2.8
2018-07-08T06:18:52.612Z,2.7
2018-07-08T06:21:52.719Z,2.6
2018-07-08T06:24:52.655Z,2.6
2018-07-08T06:27:52.746Z,2.7
2018-07-08T06:30:51.911Z,2.6
2018-07-08T06:33:51.900Z,2.6
2018-07-08T06:36:52.758Z,2.6
2018-07-08T06:39:51.878Z,2.7
2018-07-08T06:42:52.669Z,2.6
2018-07-08T06:45:51.886Z,2.6
2018-07-08T06:48:51.929Z,2.6
2018-07-08T06:51:53.200Z,2.5
2018-07-08T06:54:52.792Z,2.7
2018-07-08T06:57:53.045Z,2.5
2018-07-08T07:00:51.920Z,2.6
2018-07-08T07:03:52.675Z,2.7
2018-07-08T07:06:51.900Z,2.6
2018-07-08T07:09:52.340Z,2.6
2018-07-08T07:12:52.711Z,2.6
2018-07-08T07:15:51.876Z,2.6
2018-07-08T07:18:52.803Z,2.5
2018-07-08T07:21:52.649Z,2.7
2018-07-08T07:24:51.869Z,2.6
2018-07-08T07:27:51.957Z,2.7
2018-07-08T07:30:51.985Z,2.6
2018-07-08T07:33:51.829Z,2.6
2018-07-08T07:36:52.281Z,2.6
2018-07-08T07:39:51.887Z,2.5
2018-07-08T07:42:52.716Z,2.5
2018-07-08T07:45:51.956Z,2.6
2018-07-08T07:48:51.938Z,2.5
2018-07-08T07:51:51.911Z,2.5
2018-07-08T07:54:51.956Z,2.5
2018-07-08T07:57:52.342Z,2.6
2018-07-08T08:00:51.890Z,2.4
2018-07-08T08:03:51.892Z,2.5
2018-07-08T08:06:51.919Z,2.6
2018-07-08T08:09:51.952Z,2.5
2018-07-08T08:12:52.739Z,2.5
2018-07-08T08:15:51.963Z,2.3
2018-07-08T08:18:52.015Z,2.6
2018-07-08T08:21:51.961Z,2.9
2018-07-08T08:24:52.073Z,3
2018-07-08T08:27:51.865Z,2.7
2018-07-08T08:30:51.790Z,4.2
2018-07-08T08:33:52.017Z,4.8
2018-07-08T08:36:52.769Z,5.7
2018-07-08T08:39:51.993Z,5.2
2018-07-08T08:42:52.007Z,3.2
2018-07-08T08:45:52.467Z,4.3
2018-07-08T08:48:52.706Z,3.5
2018-07-08T08:51:51.962Z,4.4
2018-07-08T08:54:51.906Z,2.9
2018-07-08T08:57:51.936Z,3.9
2018-07-08T09:00:51.895Z,3.6
2018-07-08T09:03:51.872Z,3.3
2018-07-08T09:06:52.044Z,2.9
2018-07-08T09:09:51.991Z,2.9
2018-07-08T09:12:51.908Z,3.7
2018-07-08T09:15:52.007Z,5.4
2018-07-08T09:18:52.025Z,4.4
2018-07-08T09:21:51.890Z,4.2
2018-07-08T09:24:51.944Z,7.9
2018-07-08T09:27:51.926Z,3.6
2018-07-08T09:30:51.844Z,3
2018-07-08T09:33:52.022Z,3.6
2018-07-08T09:36:51.893Z,4.5
2018-07-08T09:39:52.748Z,4.2
2018-07-08T09:42:51.858Z,3.5
2018-07-08T09:45:52.722Z,3.5
2018-07-08T09:48:51.938Z,3.1
2018-07-08T09:51:52.087Z,4.6
2018-07-08T09:54:51.908Z,3.7
2018-07-08T09:57:52.095Z,2.8
2018-07-08T10:00:52.106Z,8.2
2018-07-08T10:03:51.871Z,8.6
2018-07-08T10:06:52.016Z,5.7
2018-07-08T10:09:51.991Z,4.9
2018-07-08T10:12:52.029Z,7.6
2018-07-08T10:15:51.907Z,6
2018-07-08T10:18:53.121Z,3.8
2018-07-08T10:21:51.871Z,11.9
2018-07-08T10:24:52.796Z,5.9
2018-07-08T10:27:51.899Z,5.8
2018-07-08T10:30:51.932Z,4.3
2018-07-08T10:33:51.959Z,6.9
2018-07-08T10:36:52.042Z,5.1
2018-07-08T10:39:51.859Z,3.9
2018-07-08T10:42:52.019Z,7
2018-07-08T10:45:51.922Z,11
2018-07-08T10:48:51.883Z,8.9
2018-07-08T10:51:51.851Z,7
2018-07-08T10:54:51.958Z,6.3
2018-07-08T10:57:51.895Z,5.9
2018-07-08T11:00:51.952Z,7.5
2018-07-08T11:03:51.917Z,7.8
2018-07-08T11:06:51.975Z,9.7
2018-07-08T11:09:51.886Z,5.3
2018-07-08T11:12:51.935Z,5
2018-07-08T11:15:51.921Z,5.4
2018-07-08T11:18:51.867Z,5.9
2018-07-08T11:21:51.971Z,5.6
2018-07-08T11:24:51.993Z,5.9
2018-07-08T11:27:52.099Z,3.7
2018-07-08T11:30:51.992Z,6
2018-07-08T11:33:51.987Z,4.7
2018-07-08T11:36:52.156Z,5.8
2018-07-08T11:39:51.837Z,4.3
2018-07-08T11:42:52.771Z,4.4
2018-07-08T11:45:51.935Z,4.9
2018-07-08T11:48:51.952Z,4.5
2018-07-08T11:51:51.952Z,4.3
2018-07-08T11:54:51.893Z,2.9
2018-07-08T11:57:51.938Z,4.2
2018-07-08T12:00:51.831Z,3.1
2018-07-08T12:03:52.113Z,3.7
2018-07-08T12:06:51.918Z,3.4
2018-07-08T12:09:51.933Z,3.4
2018-07-08T12:12:51.813Z,3.4
2018-07-08T12:15:52.000Z,3.8
2018-07-08T12:18:51.987Z,2.8
2018-07-08T12:21:51.977Z,3.5
2018-07-08T12:24:51.875Z,3.8
2018-07-08T12:27:51.990Z,4.6
2018-07-08T12:30:51.978Z,3.2
2018-07-08T12:33:51.774Z,2.9
2018-07-08T12:36:53.128Z,3.7
2018-07-08T12:39:51.821Z,4
2018-07-08T12:42:51.991Z,5.1
2018-07-08T12:45:52.026Z,5.9
2018-07-08T12:48:51.881Z,9.5
2018-07-08T12:51:52.026Z,6.3
2018-07-08T12:54:51.957Z,6.7
2018-07-08T12:57:51.971Z,6.7
2018-07-08T13:00:52.021Z,5.7
2018-07-08T13:03:51.889Z,8
2018-07-08T13:06:51.885Z,4.8
2018-07-08T13:09:51.873Z,5.8
2018-07-08T13:12:51.991Z,4.2
2018-07-08T13:15:51.727Z,4.9
2018-07-08T13:18:51.862Z,4.1
2018-07-08T13:21:51.924Z,8.4
2018-07-08T13:24:51.909Z,8.1
2018-07-08T13:27:51.859Z,8.1
2018-07-08T13:30:51.816Z,6.9
2018-07-08T13:33:51.829Z,5.7
2018-07-08T13:36:51.841Z,6
2018-07-08T13:39:51.938Z,6.6
2018-07-08T13:42:52.059Z,8.1
2018-07-08T13:45:51.887Z,5.4
2018-07-08T13:48:52.031Z,5.8
2018-07-08T13:51:51.878Z,6
2018-07-08T13:54:51.812Z,6
2018-07-08T13:57:51.899Z,4.7
2018-07-08T14:00:52.003Z,9.1
2018-07-08T14:03:51.787Z,6.6
2018-07-08T14:06:51.814Z,6.2
2018-07-08T14:09:51.959Z,8.9
2018-07-08T14:12:52.135Z,12.8
2018-07-08T14:15:51.959Z,8.1
2018-07-08T14:18:51.741Z,12.4
2018-07-08T14:21:51.988Z,10.4
2018-07-08T14:24:52.028Z,6.9
2018-07-08T14:27:51.813Z,4.2
2018-07-08T14:30:51.824Z,7.5
2018-07-08T14:33:52.019Z,4.9
2018-07-08T14:36:51.983Z,12.9
2018-07-08T14:39:51.920Z,9.1
2018-07-08T14:42:52.061Z,9
2018-07-08T14:45:51.909Z,7.7
2018-07-08T14:48:52.049Z,6.8
2018-07-08T14:51:51.920Z,6.9
2018-07-08T14:54:51.959Z,11.1
2018-07-08T14:57:51.964Z,6.7
2018-07-08T15:00:51.988Z,7.2
2018-07-08T15:03:52.079Z,6.2
2018-07-08T15:06:52.010Z,6.3
2018-07-08T15:09:53.036Z,4.1
2018-07-08T15:12:52.041Z,4.3
2018-07-08T15:15:53.443Z,4.9
2018-07-08T15:18:52.134Z,8.7
2018-07-08T15:21:53.228Z,9.8
2018-07-08T15:24:52.068Z,9.3
2018-07-08T15:27:52.132Z,18.4
2018-07-08T15:30:52.163Z,6.4
2018-07-08T15:33:52.190Z,10.4
2018-07-08T15:36:52.060Z,7
2018-07-08T15:39:51.755Z,6.3
2018-07-08T15:42:52.096Z,8.5
2018-07-08T15:45:52.024Z,6.6
2018-07-08T15:48:51.876Z,10.5
2018-07-08T15:51:51.716Z,9.7
2018-07-08T15:54:51.712Z,14.6
2018-07-08T15:57:51.913Z,14.8
2018-07-08T16:00:51.827Z,9.8
2018-07-08T16:03:51.868Z,9.1
2018-07-08T16:06:51.867Z,12
2018-07-08T16:09:51.914Z,13.5
2018-07-08T16:12:51.895Z,18.5
2018-07-08T16:15:52.191Z,12.7
2018-07-08T16:18:53.278Z,10.1
2018-07-08T16:21:51.926Z,8
2018-07-08T16:24:53.209Z,15.2
2018-07-08T16:27:51.896Z,12.6
2018-07-08T16:30:51.943Z,10.2
2018-07-08T16:33:51.874Z,7.5
2018-07-08T16:36:51.776Z,12.5
2018-07-08T16:39:51.922Z,6.9
2018-07-08T16:42:51.756Z,8.4
2018-07-08T16:45:51.814Z,12.6
2018-07-08T16:48:51.982Z,8.9
2018-07-08T16:51:51.738Z,18.6
2018-07-08T16:54:51.826Z,19
2018-07-08T16:57:51.753Z,15.7
2018-07-08T17:00:51.785Z,18.5
2018-07-08T17:03:51.817Z,14.1
2018-07-08T17:06:51.859Z,11.2
2018-07-08T17:09:51.858Z,5.8
2018-07-08T17:12:51.953Z,12.3
2018-07-08T17:15:52.006Z,9.3
2018-07-08T17:18:52.013Z,11.1
2018-07-08T17:21:52.355Z,9.5
2018-07-08T17:24:51.905Z,9.2
2018-07-08T17:27:51.845Z,10.2
2018-07-08T17:30:52.114Z,8.8
2018-07-08T17:33:51.897Z,12.6
2018-07-08T17:36:52.017Z,13.6
2018-07-08T17:39:51.884Z,11.6
2018-07-08T17:42:51.923Z,9.4
2018-07-08T17:45:52.004Z,7.7
2018-07-08T17:48:52.006Z,9.3
2018-07-08T17:51:51.864Z,12.1
2018-07-08T17:54:51.902Z,8.1
2018-07-08T17:57:51.906Z,11.4
2018-07-08T18:00:51.915Z,8.2
2018-07-08T18:03:51.848Z,9.6
2018-07-08T18:06:51.821Z,9.1
2018-07-08T18:09:51.777Z,9.2
2018-07-08T18:12:51.923Z,7.7
2018-07-08T18:15:51.788Z,9.2
2018-07-08T18:18:51.834Z,7.2
2018-07-08T18:25:31.026Z,6.6
2018-07-08T18:28:31.194Z,7.8
2018-07-08T18:31:31.409Z,5
2018-07-08T18:34:30.942Z,8.5
2018-07-08T18:37:32.010Z,5.8
2018-07-08T18:40:30.956Z,4.2
2018-07-08T18:43:31.027Z,5.2
2018-07-08T18:46:31.768Z,7.5
2018-07-08T18:49:30.998Z,4.9
2018-07-08T18:52:31.585Z,7.3
2018-07-08T18:55:30.841Z,5.3
2018-07-08T18:58:31.097Z,5.4
2018-07-08T19:01:31.009Z,4.4
2018-07-08T19:04:31.313Z,6
2018-07-08T19:07:30.768Z,7.1
2018-07-08T19:10:30.938Z,3.5
2018-07-08T19:14:02.610Z,8.2
2018-07-08T19:16:30.887Z,3.7
2018-07-08T19:19:30.911Z,4.7
2018-07-08T19:22:31.149Z,4.8
2018-07-08T19:25:31.033Z,3.7
2018-07-08T19:28:30.803Z,4.3
2018-07-08T19:31:30.859Z,5.4
2018-07-08T19:34:31.030Z,7.3
2018-07-08T19:37:31.175Z,5.5
2018-07-08T19:40:32.246Z,7.6
2018-07-08T19:43:30.872Z,5.4
2018-07-08T19:46:31.017Z,6.1
2018-07-08T19:49:31.064Z,5.1
2018-07-08T19:52:30.858Z,6.6
2018-07-08T19:55:31.013Z,7.2
2018-07-08T19:58:30.916Z,6.2
2018-07-08T20:01:31.096Z,4.4
2018-07-08T20:04:30.922Z,5.4
2018-07-08T20:07:31.242Z,5
2018-07-08T20:10:31.061Z,6.4
2018-07-08T20:13:30.961Z,5.8
2018-07-08T20:16:32.234Z,4.3
2018-07-08T20:19:31.004Z,4.5
2018-07-08T20:22:30.879Z,7.6
2018-07-08T20:25:30.854Z,6.3
2018-07-08T20:28:31.168Z,3.9
2018-07-08T20:31:31.029Z,5.5
2018-07-08T20:34:30.673Z,3.7
2018-07-08T20:37:30.964Z,5.1
2018-07-08T20:40:30.854Z,4.8
2018-07-08T20:43:30.751Z,2.6
2018-07-08T20:46:30.928Z,3.1
2018-07-08T20:49:30.831Z,4.5
2018-07-08T20:52:30.855Z,7.1
2018-07-08T20:55:30.797Z,6
2018-07-08T20:58:31.025Z,3.8
2018-07-08T21:01:40.931Z,4.1
2018-07-08T21:04:30.835Z,4.5
2018-07-08T21:07:30.842Z,5.8
2018-07-08T21:10:30.811Z,4.1
2018-07-08T21:13:30.969Z,3.2
2018-07-08T21:16:30.941Z,3.7
2018-07-08T21:19:30.781Z,3.1
2018-07-08T21:22:30.913Z,2.8
2018-07-08T21:25:30.935Z,3.6
2018-07-08T21:28:30.807Z,2.8
2018-07-08T21:31:30.806Z,3.9
2018-07-08T21:34:30.953Z,3.9
2018-07-08T21:37:30.869Z,3.1
2018-07-08T21:43:54.652Z,3.5
2018-07-08T21:46:54.689Z,3.7
2018-07-08T21:49:54.729Z,5.3
2018-07-08T21:52:54.650Z,3.1
2018-07-08T21:55:54.538Z,5.4
2018-07-08T21:58:54.771Z,2.3
2018-07-08T22:01:54.593Z,4
2018-07-08T22:04:54.798Z,4
2018-07-08T22:07:54.782Z,2.7
2018-07-08T22:10:54.814Z,3.2
2018-07-08T22:13:54.633Z,3.8
2018-07-08T22:16:54.558Z,3
2018-07-08T22:19:54.568Z,2.6
2018-07-08T22:22:54.880Z,2.2
2018-07-08T22:25:54.640Z,2
2018-07-08T22:28:54.667Z,3.5
2018-07-08T22:31:54.891Z,4
2018-07-08T22:34:54.736Z,2.3
2018-07-08T22:37:54.545Z,3
2018-07-08T22:40:54.732Z,2.8
2018-07-08T22:43:54.616Z,2.7
2018-07-08T22:46:54.712Z,4.9
2018-07-08T22:49:54.462Z,2.7
2018-07-08T22:52:54.418Z,4
2018-07-08T22:55:54.498Z,2.5
2018-07-08T22:58:54.502Z,2.9
2018-07-08T23:01:54.556Z,3.1
2018-07-08T23:04:54.727Z,2.9
2018-07-08T23:07:54.582Z,2.9
2018-07-08T23:10:54.725Z,2.4
2018-07-08T23:13:54.548Z,3.1
2018-07-08T23:16:54.838Z,2.5
2018-07-08T23:19:54.976Z,2.1
2018-07-08T23:22:54.613Z,2
2018-07-08T23:25:55.100Z,2.3
2018-07-08T23:28:54.738Z,2.1
2018-07-08T23:31:54.531Z,3.4
2018-07-08T23:34:54.620Z,2.4
2018-07-08T23:37:54.506Z,2.5
2018-07-08T23:40:54.401Z,1.9
2018-07-08T23:43:54.649Z,2.1
2018-07-08T23:46:54.764Z,2.6
2018-07-08T23:49:54.481Z,2.6
2018-07-08T23:52:54.674Z,2
2018-07-08T23:55:54.781Z,1.5
2018-07-08T23:58:54.442Z,2.1
